Time;durP1;ratioP1;P1;durP2;ratioP2;P2;SDS_P1;SDS_P2;PMS_P1;PMS_P2;Temp;Humidity;BMP_temperature;BMP_pressure;BME280_temperature;BME280_humidity;BME280_pressure;Samples;Min_cycle;Max_cycle;Signal;HPM_P1;HPM_P2
2023/12/17 00:01:21;;;;;;;11.47;6.60;;;10.10;99.90;;;;;;5028087;28;20471;-87
2023/12/17 00:03:47;;;;;;;14.57;6.55;;;10.10;99.90;;;;;;5011813;28;20409;-88
2023/12/17 00:06:12;;;;;;;12.30;6.50;;;10.10;99.90;;;;;;5011482;28;20496;-89
2023/12/17 00:08:38;;;;;;;12.03;6.70;;;10.10;99.90;;;;;;5012377;28;20410;-89
2023/12/17 00:11:04;;;;;;;12.73;6.75;;;10.10;99.90;;;;;;5028130;28;20412;-87
2023/12/17 00:13:29;;;;;;;12.82;6.55;;;10.10;99.90;;;;;;5012292;28;20447;-89
2023/12/17 00:15:55;;;;;;;12.63;6.80;;;10.10;99.90;;;;;;5008174;28;20791;-87
2023/12/17 00:18:21;;;;;;;11.20;6.28;;;10.10;99.90;;;;;;5024818;28;20848;-87
2023/12/17 00:20:46;;;;;;;12.95;6.72;;;10.10;99.90;;;;;;5009511;28;20414;-87
2023/12/17 00:23:12;;;;;;;10.30;6.13;;;10.10;99.90;;;;;;5011958;28;20423;-87
2023/12/17 00:25:37;;;;;;;12.13;6.47;;;10.10;99.90;;;;;;5013303;28;20413;-87
2023/12/17 00:28:03;;;;;;;13.50;6.73;;;10.10;99.90;;;;;;5012133;28;20461;-86
2023/12/17 00:30:29;;;;;;;11.25;6.65;;;10.30;99.90;;;;;;5029025;28;20407;-87
2023/12/17 00:32:54;;;;;;;11.50;6.55;;;10.10;99.90;;;;;;5011297;28;20415;-87
2023/12/17 00:35:21;;;;;;;11.03;6.30;;;10.10;99.90;;;;;;5028903;28;20434;-86
2023/12/17 00:37:46;;;;;;;11.90;6.47;;;10.10;99.90;;;;;;5028641;28;20458;-87
2023/12/17 00:40:12;;;;;;;12.98;6.50;;;10.10;99.90;;;;;;5011204;28;20830;-88
2023/12/17 00:42:37;;;;;;;12.20;6.10;;;10.20;99.90;;;;;;5028409;28;20402;-86
2023/12/17 00:45:03;;;;;;;10.43;6.13;;;10.20;99.90;;;;;;5011134;28;20890;-87
2023/12/17 00:47:29;;;;;;;11.93;6.20;;;10.10;99.90;;;;;;5012053;28;20490;-89
2023/12/17 00:49:55;;;;;;;13.23;6.27;;;10.20;99.90;;;;;;5012023;28;20454;-89
2023/12/17 00:52:21;;;;;;;10.87;6.10;;;10.20;99.90;;;;;;5011930;28;20773;-89
2023/12/17 00:54:51;;;;;;;12.27;6.22;;;10.50;99.90;;;;;;5012240;28;20427;-88
2023/12/17 00:57:17;;;;;;;10.30;5.63;;;10.50;99.90;;;;;;5011743;28;20435;-88
2023/12/17 00:59:43;;;;;;;9.75;5.68;;;10.30;99.90;;;;;;5011852;28;20403;-88
2023/12/17 01:02:08;;;;;;;12.13;6.20;;;10.20;99.90;;;;;;5028370;28;20453;-90
2023/12/17 01:04:34;;;;;;;10.52;5.82;;;10.20;99.90;;;;;;5012337;28;20411;-86
2023/12/17 01:07:00;;;;;;;11.00;6.22;;;10.30;99.90;;;;;;5011038;28;20473;-88
2023/12/17 01:09:25;;;;;;;13.67;6.50;;;10.20;99.90;;;;;;5028667;28;20911;-87
2023/12/17 01:11:51;;;;;;;12.63;5.90;;;10.20;99.90;;;;;;5011379;28;20407;-88
2023/12/17 01:14:17;;;;;;;10.43;5.90;;;10.20;99.90;;;;;;5028422;28;20409;-90
2023/12/17 01:16:42;;;;;;;11.17;6.30;;;10.20;99.90;;;;;;5031332;28;20421;-89
2023/12/17 01:19:08;;;;;;;10.38;6.10;;;10.20;99.90;;;;;;5013993;28;21245;-88
2023/12/17 01:21:34;;;;;;;10.88;5.82;;;10.20;99.90;;;;;;5015521;28;20409;-88
2023/12/17 01:23:59;;;;;;;12.27;6.23;;;10.40;99.90;;;;;;5030367;28;20429;-87
2023/12/17 01:26:26;;;;;;;10.60;6.07;;;10.80;99.90;;;;;;5031492;28;20962;-89
2023/12/17 01:28:56;;;;;;;10.65;5.82;;;10.30;99.90;;;;;;5014631;28;20822;-87
2023/12/17 01:31:21;;;;;;;11.20;5.55;;;10.30;99.90;;;;;;5030535;28;20412;-90
2023/12/17 01:33:47;;;;;;;11.70;5.43;;;10.50;99.90;;;;;;5015199;28;20460;-90
2023/12/17 01:36:13;;;;;;;12.23;5.20;;;10.30;99.90;;;;;;5014585;28;20958;-92
2023/12/17 01:38:39;;;;;;;11.68;5.43;;;10.30;99.90;;;;;;5014836;28;20397;-88
2023/12/17 01:41:06;;;;;;;10.40;5.40;;;10.10;99.90;;;;;;5031001;28;20489;-90
2023/12/17 01:43:33;;;;;;;11.50;5.32;;;10.50;99.90;;;;;;4995675;28;20441;-90
2023/12/17 01:45:59;;;;;;;9.32;5.35;;;10.50;99.90;;;;;;5044134;28;20412;-90
2023/12/17 01:48:26;;;;;;;10.02;4.85;;;10.30;99.90;;;;;;4995567;28;20399;-90
2023/12/17 01:50:55;;;;;;;9.23;4.60;;;10.60;99.90;;;;;;4995040;28;20404;-89
2023/12/17 01:53:22;;;;;;;10.53;5.00;;;10.30;99.90;;;;;;4995524;28;20407;-88
2023/12/17 01:55:49;;;;;;;9.70;4.55;;;10.20;99.90;;;;;;5014232;28;20436;-88
2023/12/17 01:58:16;;;;;;;11.50;5.22;;;10.30;99.90;;;;;;5012453;28;20484;-87
2023/12/17 02:00:42;;;;;;;10.85;5.78;;;10.30;99.90;;;;;;5030569;28;20934;-88
2023/12/17 02:03:07;;;;;;;10.00;5.10;;;10.30;99.90;;;;;;5012893;28;20405;-88
2023/12/17 02:05:34;;;;;;;10.98;5.75;;;10.60;99.90;;;;;;5014550;28;20413;-88
2023/12/17 02:08:01;;;;;;;11.20;5.53;;;10.30;99.90;;;;;;5014206;28;20481;-89
2023/12/17 02:10:27;;;;;;;10.25;5.43;;;10.50;99.90;;;;;;5013690;28;20439;-91
2023/12/17 02:12:52;;;;;;;9.95;5.30;;;10.30;99.90;;;;;;5014169;28;20398;-89
2023/12/17 02:15:18;;;;;;;8.73;4.82;;;10.20;99.90;;;;;;5013666;28;21121;-89
2023/12/17 02:17:44;;;;;;;9.73;5.28;;;10.20;99.90;;;;;;5015176;28;20425;-91
2023/12/17 02:20:10;;;;;;;9.23;5.17;;;10.40;99.90;;;;;;5013530;28;20412;-87
2023/12/17 02:22:38;;;;;;;8.80;5.10;;;10.20;99.90;;;;;;5014486;28;20420;-89
2023/12/17 02:25:04;;;;;;;12.52;5.00;;;10.40;99.90;;;;;;5013452;28;20397;-87
2023/12/17 02:27:30;;;;;;;10.67;4.73;;;10.20;99.90;;;;;;5013737;28;20970;-87
2023/12/17 02:29:56;;;;;;;8.60;4.60;;;10.20;99.90;;;;;;5014054;28;20451;-89
2023/12/17 02:32:23;;;;;;;10.40;5.07;;;10.10;99.90;;;;;;5013556;28;20401;-89
2023/12/17 02:34:49;;;;;;;9.07;5.00;;;10.40;99.90;;;;;;5014729;28;20460;-91
2023/12/17 02:37:15;;;;;;;10.18;4.80;;;10.10;99.90;;;;;;5013093;28;20953;-90
2023/12/17 02:39:41;;;;;;;10.35;4.90;;;10.30;99.90;;;;;;5014527;28;20394;-90
2023/12/17 02:42:07;;;;;;;8.23;4.40;;;10.40;99.90;;;;;;5013603;28;20409;-89
2023/12/17 02:44:32;;;;;;;9.70;4.60;;;10.10;99.90;;;;;;5013109;28;20467;-90
2023/12/17 02:46:58;;;;;;;8.60;4.28;;;10.40;99.90;;;;;;5013799;28;20414;-89
2023/12/17 02:49:24;;;;;;;9.67;4.53;;;10.10;99.90;;;;;;5013473;28;20401;-90
2023/12/17 02:51:51;;;;;;;11.60;4.47;;;10.40;99.90;;;;;;5030289;28;20811;-90
2023/12/17 02:54:20;;;;;;;12.25;4.90;;;10.00;99.90;;;;;;5013576;28;20462;-88
2023/12/17 02:56:46;;;;;;;12.95;4.80;;;10.10;99.90;;;;;;5013646;28;20437;-89
2023/12/17 02:59:12;;;;;;;11.60;4.53;;;10.10;99.90;;;;;;5012783;28;20455;-90
2023/12/17 03:01:42;;;;;;;9.70;4.75;;;10.40;99.90;;;;;;5013547;28;20405;-86
2023/12/17 03:04:09;;;;;;;10.25;4.60;;;10.60;99.90;;;;;;5029977;28;20786;-89
2023/12/17 03:06:39;;;;;;;10.50;4.70;;;10.00;99.90;;;;;;5013777;28;20406;-88
2023/12/17 03:09:05;;;;;;;12.00;5.22;;;10.00;99.90;;;;;;5013463;28;20408;-89
2023/12/17 03:11:31;;;;;;;11.52;4.80;;;10.00;99.90;;;;;;5029771;28;20934;-90
2023/12/17 03:13:57;;;;;;;10.38;5.00;;;10.00;99.90;;;;;;5030112;28;20441;-90
2023/12/17 03:16:24;;;;;;;11.80;5.25;;;10.00;99.90;;;;;;5012535;28;20446;-88
2023/12/17 03:18:49;;;;;;;10.35;5.28;;;10.30;99.90;;;;;;5014085;28;20413;-89
2023/12/17 03:21:15;;;;;;;12.77;5.50;;;10.20;99.90;;;;;;5012898;28;20416;-90
2023/12/17 03:23:41;;;;;;;12.13;5.67;;;10.50;99.90;;;;;;5013517;28;20490;-89
2023/12/17 03:26:07;;;;;;;10.93;5.03;;;10.10;99.90;;;;;;5013247;28;20450;-90
2023/12/17 03:28:32;;;;;;;11.10;5.43;;;10.10;99.90;;;;;;5012662;28;20408;-88
2023/12/17 03:30:58;;;;;;;11.57;5.97;;;10.00;99.90;;;;;;5013102;28;20406;-88
2023/12/17 03:33:24;;;;;;;10.00;5.97;;;10.00;99.90;;;;;;5013093;28;20464;-89
2023/12/17 03:35:49;;;;;;;13.02;5.72;;;10.00;99.90;;;;;;5014002;28;20505;-89
2023/12/17 03:38:15;;;;;;;13.60;5.90;;;9.90;99.90;;;;;;5013125;28;20405;-90
2023/12/17 03:40:41;;;;;;;10.30;6.40;;;9.90;99.90;;;;;;5030038;28;20892;-90
2023/12/17 03:43:07;;;;;;;14.73;6.82;;;10.00;99.90;;;;;;5029370;28;20386;-89
2023/12/17 03:45:33;;;;;;;13.88;7.40;;;9.90;99.90;;;;;;5029579;28;20463;-90
2023/12/17 03:48:00;;;;;;;14.88;8.43;;;9.90;99.90;;;;;;5013662;28;20409;-88
2023/12/17 03:50:26;;;;;;;13.53;8.50;;;9.90;99.90;;;;;;5012858;28;20432;-90
2023/12/17 03:52:52;;;;;;;12.73;7.38;;;9.90;99.90;;;;;;5013531;28;20411;-91
2023/12/17 03:55:18;;;;;;;14.65;8.32;;;9.80;99.90;;;;;;5014337;28;20416;-89
2023/12/17 03:57:45;;;;;;;13.73;8.23;;;9.80;99.90;;;;;;5017484;28;20545;-91
2023/12/17 04:00:12;;;;;;;12.93;7.85;;;9.80;99.90;;;;;;5017148;28;20485;-90
2023/12/17 04:02:37;;;;;;;13.10;8.48;;;9.80;99.90;;;;;;5016120;28;20405;-89
2023/12/17 04:05:04;;;;;;;14.77;8.80;;;9.80;99.90;;;;;;5033563;28;20416;-92
2023/12/17 04:07:30;;;;;;;15.90;9.02;;;9.60;99.90;;;;;;5033305;28;21134;-89
2023/12/17 04:10:03;;;;;;;17.02;8.40;;;9.80;99.90;;;;;;5016931;28;20409;-89
2023/12/17 04:12:29;;;;;;;16.98;8.95;;;9.80;99.90;;;;;;5016308;28;20870;-87
2023/12/17 04:14:55;;;;;;;14.68;9.13;;;9.70;99.90;;;;;;5050288;28;20449;-88
2023/12/17 04:17:20;;;;;;;13.95;8.75;;;10.10;99.90;;;;;;5016468;28;20589;-90
2023/12/17 04:19:46;;;;;;;17.07;9.50;;;10.00;99.90;;;;;;5016609;28;20401;-88
2023/12/17 04:22:12;;;;;;;18.60;9.50;;;9.70;99.90;;;;;;5017082;28;20504;-88
2023/12/17 04:24:38;;;;;;;16.52;8.93;;;9.70;99.90;;;;;;5032648;28;20401;-89
2023/12/17 04:27:04;;;;;;;16.23;9.23;;;9.70;99.90;;;;;;5016820;28;20401;-90
2023/12/17 04:29:30;;;;;;;13.27;8.63;;;9.70;99.90;;;;;;5015606;28;20463;-91
2023/12/17 04:31:56;;;;;;;18.17;9.88;;;9.90;99.90;;;;;;5016794;28;20413;-91
2023/12/17 04:34:21;;;;;;;17.23;9.23;;;9.70;99.90;;;;;;5016126;28;20405;-89
2023/12/17 04:36:47;;;;;;;16.83;10.20;;;9.60;99.90;;;;;;5016315;28;20433;-90
2023/12/17 04:39:13;;;;;;;18.20;10.63;;;9.60;99.90;;;;;;5016384;28;20413;-90
2023/12/17 04:41:39;;;;;;;18.02;9.93;;;9.60;99.90;;;;;;5016266;28;20444;-92
2023/12/17 04:44:05;;;;;;;16.42;10.00;;;9.60;99.90;;;;;;5016041;28;20409;-91
2023/12/17 04:46:32;;;;;;;15.43;9.93;;;9.90;99.90;;;;;;5049173;28;20927;-91
2023/12/17 04:48:58;;;;;;;17.15;9.85;;;9.90;99.90;;;;;;5016714;28;20448;-90
2023/12/17 04:51:25;;;;;;;19.77;9.70;;;9.60;99.90;;;;;;5016088;28;20417;-90
2023/12/17 04:53:51;;;;;;;17.70;9.35;;;9.80;99.90;;;;;;5016551;28;20445;-91
2023/12/17 04:56:18;;;;;;;15.75;9.50;;;9.60;99.90;;;;;;5015885;28;20498;-91
2023/12/17 04:58:43;;;;;;;15.07;9.63;;;9.60;99.90;;;;;;5016120;28;20405;-90
2023/12/17 05:01:09;;;;;;;15.40;9.10;;;9.60;99.90;;;;;;5015569;28;20915;-90
2023/12/17 05:03:36;;;;;;;16.13;10.17;;;9.60;99.90;;;;;;5015377;28;20500;-90
2023/12/17 05:06:02;;;;;;;16.30;10.27;;;9.60;99.90;;;;;;5015660;28;20428;-91
2023/12/17 05:08:28;;;;;;;16.97;9.97;;;9.90;99.90;;;;;;5014987;28;21027;-89
2023/12/17 05:10:54;;;;;;;17.80;10.60;;;9.50;99.90;;;;;;5015938;28;20558;-90
2023/12/17 05:13:19;;;;;;;14.32;9.20;;;9.50;99.90;;;;;;5015643;28;20507;-89
2023/12/17 05:15:45;;;;;;;15.93;10.27;;;9.60;99.90;;;;;;5015407;28;20965;-91
2023/12/17 05:18:11;;;;;;;16.20;9.60;;;9.40;99.90;;;;;;5015683;28;20405;-90
2023/12/17 05:20:37;;;;;;;16.58;9.95;;;10.00;99.90;;;;;;5015025;28;20487;-89
2023/12/17 05:23:03;;;;;;;13.52;9.68;;;9.50;99.90;;;;;;5015602;28;20488;-91
2023/12/17 05:25:28;;;;;;;14.95;9.90;;;9.50;99.90;;;;;;5014950;28;20916;-90
2023/12/17 05:27:54;;;;;;;17.27;9.90;;;9.50;99.90;;;;;;5015650;28;20417;-90
2023/12/17 05:30:20;;;;;;;15.93;10.65;;;9.40;99.90;;;;;;5015064;28;20460;-90
2023/12/17 05:32:45;;;;;;;16.08;11.10;;;9.70;99.90;;;;;;5016074;28;20406;-91
2023/12/17 05:35:11;;;;;;;18.00;11.60;;;9.30;99.90;;;;;;5014583;28;20420;-92
2023/12/17 05:37:37;;;;;;;19.83;11.95;;;9.50;99.90;;;;;;5015440;28;20500;-90
2023/12/17 05:40:03;;;;;;;17.67;11.75;;;9.50;99.90;;;;;;5015693;28;21095;-89
2023/12/17 05:42:31;;;;;;;19.30;13.07;;;9.50;99.90;;;;;;5031392;28;20855;-91
2023/12/17 05:44:56;;;;;;;17.20;12.00;;;9.70;99.90;;;;;;5015676;28;20400;-90
2023/12/17 05:47:22;;;;;;;17.33;11.93;;;9.60;99.90;;;;;;5014577;28;20405;-90
2023/12/17 05:49:47;;;;;;;17.23;11.23;;;9.40;99.90;;;;;;5015660;28;20439;-89
2023/12/17 05:52:13;;;;;;;18.95;11.32;;;9.60;99.90;;;;;;5014854;28;20441;-91
2023/12/17 05:54:39;;;;;;;18.10;11.30;;;9.60;99.90;;;;;;5015344;28;20920;-91
2023/12/17 05:57:05;;;;;;;16.75;10.98;;;9.80;99.90;;;;;;5014955;28;20425;-92
2023/12/17 05:59:30;;;;;;;21.15;11.93;;;9.60;99.90;;;;;;5014371;28;20409;-90
2023/12/17 06:01:56;;;;;;;16.52;11.55;;;9.60;99.90;;;;;;5014919;28;20413;-91
2023/12/17 06:04:22;;;;;;;17.80;10.90;;;9.60;99.90;;;;;;5014464;28;20401;-89
2023/12/17 06:06:48;;;;;;;17.85;11.52;;;9.90;99.90;;;;;;5014873;28;20432;-90
2023/12/17 06:09:13;;;;;;;17.77;10.52;;;9.60;99.90;;;;;;5014058;28;20452;-89
2023/12/17 06:11:39;;;;;;;19.83;11.57;;;9.60;99.90;;;;;;5015139;28;20397;-87
2023/12/17 06:14:05;;;;;;;16.20;11.10;;;9.60;99.90;;;;;;5013926;28;20424;-90
2023/12/17 06:16:31;;;;;;;17.13;11.40;;;9.60;99.90;;;;;;5013881;28;20429;-90
2023/12/17 06:18:57;;;;;;;19.08;10.85;;;9.90;99.90;;;;;;5014511;28;20804;-91
2023/12/17 06:21:24;;;;;;;16.45;10.20;;;9.60;99.90;;;;;;5013934;28;20406;-91
2023/12/17 06:23:51;;;;;;;18.05;10.75;;;10.00;99.90;;;;;;5030627;28;20405;-90
2023/12/17 06:26:19;;;;;;;18.02;10.70;;;9.80;99.90;;;;;;5033539;28;20450;-92
2023/12/17 06:28:45;;;;;;;20.80;11.20;;;9.70;99.90;;;;;;5007943;28;20406;-92
2023/12/17 06:31:11;;;;;;;18.08;11.27;;;9.60;99.90;;;;;;5013555;28;20479;-90
2023/12/17 06:33:37;;;;;;;21.07;11.10;;;9.80;99.90;;;;;;5014356;28;20417;-89
2023/12/17 06:36:04;;;;;;;21.20;11.80;;;9.70;99.90;;;;;;5030951;28;20429;-90
2023/12/17 06:38:29;;;;;;;15.40;10.90;;;9.40;99.90;;;;;;5013532;28;20444;-92
2023/12/17 06:40:55;;;;;;;18.37;11.83;;;9.60;99.90;;;;;;5014111;28;20401;-89
2023/12/17 06:43:21;;;;;;;18.67;12.23;;;9.60;99.90;;;;;;5013319;28;20409;-91
2023/12/17 06:45:46;;;;;;;17.95;12.45;;;9.80;99.90;;;;;;5013790;28;20765;-91
2023/12/17 06:48:12;;;;;;;20.90;13.10;;;9.90;99.90;;;;;;5013717;28;20772;-88
2023/12/17 06:50:38;;;;;;;22.52;12.23;;;9.50;99.90;;;;;;5014840;28;20958;-91
2023/12/17 06:53:04;;;;;;;19.03;12.90;;;9.60;99.90;;;;;;5014024;28;20406;-87
2023/12/17 06:55:29;;;;;;;18.80;12.93;;;9.60;99.90;;;;;;5014225;28;20457;-90
2023/12/17 06:57:56;;;;;;;18.47;11.80;;;9.60;99.90;;;;;;5013735;28;20413;-90
2023/12/17 07:00:21;;;;;;;21.20;11.98;;;9.60;99.90;;;;;;5022986;28;20424;-90
2023/12/17 07:02:47;;;;;;;21.43;12.37;;;10.00;99.90;;;;;;5014014;28;20413;-88
2023/12/17 07:05:13;;;;;;;18.67;11.25;;;9.90;99.90;;;;;;5012019;28;20397;-91
2023/12/17 07:07:39;;;;;;;19.30;11.10;;;9.60;99.90;;;;;;5046811;28;20406;-89
2023/12/17 07:10:06;;;;;;;22.50;11.32;;;9.60;99.90;;;;;;5046954;28;20401;-90
2023/12/17 07:12:32;;;;;;;20.48;11.98;;;9.50;99.90;;;;;;5013418;28;20416;-89
2023/12/17 07:14:58;;;;;;;21.17;14.23;;;9.60;99.90;;;;;;5029245;28;20500;-88
2023/12/17 07:17:24;;;;;;;21.80;14.67;;;9.60;99.90;;;;;;5013228;28;20516;-91
2023/12/17 07:19:49;;;;;;;24.35;15.98;;;9.60;99.90;;;;;;5030205;28;20425;-90
2023/12/17 07:22:16;;;;;;;23.87;15.80;;;9.60;99.90;;;;;;5011823;28;20829;-90
2023/12/17 07:24:42;;;;;;;23.38;16.10;;;9.60;99.90;;;;;;5045495;28;20751;-92
2023/12/17 07:27:10;;;;;;;24.65;15.73;;;9.80;99.90;;;;;;5013132;28;20402;-91
2023/12/17 07:29:36;;;;;;;25.58;15.27;;;9.60;99.90;;;;;;5027846;28;20398;-89
2023/12/17 07:32:02;;;;;;;25.50;16.73;;;9.60;99.90;;;;;;5011752;28;20414;-90
2023/12/17 07:34:27;;;;;;;24.63;15.80;;;9.70;99.90;;;;;;5011301;28;20402;-91
2023/12/17 07:36:55;;;;;;;26.10;17.47;;;9.80;99.90;;;;;;5013205;28;20476;-93
2023/12/17 07:39:21;;;;;;;30.23;17.67;;;9.70;99.90;;;;;;5012495;28;20402;-92
2023/12/17 07:41:47;;;;;;;32.23;18.63;;;9.80;99.90;;;;;;5013435;28;20496;-92
2023/12/17 07:44:12;;;;;;;30.67;18.88;;;9.70;99.90;;;;;;5011681;28;20567;-91
2023/12/17 07:46:38;;;;;;;27.20;18.50;;;9.70;99.90;;;;;;5014044;28;20410;-90
2023/12/17 07:49:04;;;;;;;27.83;16.90;;;9.60;99.90;;;;;;5012954;28;20498;-89
2023/12/17 07:51:29;;;;;;;29.45;16.33;;;9.60;99.90;;;;;;5012660;28;20418;-92
2023/12/17 07:53:55;;;;;;;27.60;15.70;;;9.70;99.90;;;;;;5013636;28;20465;-92
2023/12/17 07:56:21;;;;;;;22.70;12.73;;;9.40;99.90;;;;;;5029110;28;20915;-90
2023/12/17 07:58:47;;;;;;;24.20;13.77;;;9.60;99.90;;;;;;5029433;28;20456;-91
2023/12/17 08:01:13;;;;;;;23.63;14.50;;;9.60;99.90;;;;;;5012245;28;20401;-92
2023/12/17 08:03:38;;;;;;;22.90;14.68;;;9.40;99.90;;;;;;5013343;28;20451;-92
2023/12/17 08:06:04;;;;;;;25.73;15.57;;;9.70;99.90;;;;;;5012347;28;20451;-92
2023/12/17 08:08:31;;;;;;;20.97;15.17;;;9.50;99.90;;;;;;5013310;28;20507;-92
2023/12/17 08:10:57;;;;;;;23.30;15.13;;;9.60;99.90;;;;;;5013207;28;20477;-91
2023/12/17 08:13:23;;;;;;;24.90;15.90;;;9.50;99.90;;;;;;5012140;28;20750;-88
2023/12/17 08:15:49;;;;;;;26.88;14.52;;;9.50;99.90;;;;;;5009433;28;20442;-92
2023/12/17 08:18:15;;;;;;;20.80;14.15;;;9.50;99.90;;;;;;5009340;28;20407;-91
2023/12/17 08:20:40;;;;;;;22.50;13.00;;;9.50;99.90;;;;;;5010257;28;20507;-93
2023/12/17 08:23:06;;;;;;;20.53;11.90;;;9.50;99.90;;;;;;5008733;28;20465;-91
2023/12/17 08:25:38;;;;;;;20.03;13.03;;;9.30;99.90;;;;;;5026310;28;20917;-90
2023/12/17 08:28:05;;;;;;;22.15;13.02;;;9.50;99.90;;;;;;5009814;28;20411;-91
2023/12/17 08:30:31;;;;;;;22.50;13.63;;;9.50;99.90;;;;;;5009287;28;20441;-92
2023/12/17 08:32:56;;;;;;;24.30;13.93;;;9.60;99.90;;;;;;5010081;28;20494;-91
2023/12/17 08:35:22;;;;;;;25.87;14.43;;;9.70;99.90;;;;;;5009097;28;20928;-91
2023/12/17 08:37:48;;;;;;;22.30;13.40;;;9.40;99.90;;;;;;5010068;28;20407;-89
2023/12/17 08:40:14;;;;;;;24.80;13.70;;;9.40;99.90;;;;;;5009171;28;20423;-90
2023/12/17 08:42:40;;;;;;;24.13;13.95;;;9.30;99.90;;;;;;5012283;28;20409;-90
2023/12/17 08:45:06;;;;;;;24.23;14.00;;;9.60;99.90;;;;;;5012574;28;20443;-91
2023/12/17 08:47:32;;;;;;;24.83;15.10;;;9.40;99.90;;;;;;5012863;28;20414;-90
2023/12/17 08:49:59;;;;;;;31.88;15.93;;;9.30;99.90;;;;;;5012603;28;20403;-90
2023/12/17 08:52:26;;;;;;;27.92;15.10;;;9.40;99.90;;;;;;5007984;28;20496;-88
2023/12/17 08:54:52;;;;;;;27.65;15.85;;;9.40;99.90;;;;;;5015914;28;20443;-88
2023/12/17 08:57:17;;;;;;;28.58;15.18;;;9.40;99.90;;;;;;5018771;28;20477;-89
2023/12/17 08:59:44;;;;;;;28.73;14.93;;;9.40;99.90;;;;;;5045392;28;20916;-90
2023/12/17 09:02:09;;;;;;;25.58;13.30;;;9.40;99.90;;;;;;5005353;28;20996;-90
2023/12/17 09:04:35;;;;;;;27.90;14.20;;;9.40;99.90;;;;;;5012433;28;20407;-90
2023/12/17 09:07:01;;;;;;;26.00;13.00;;;9.60;99.90;;;;;;5012241;28;21042;-88
2023/12/17 09:09:26;;;;;;;29.80;13.40;;;9.40;99.90;;;;;;5011103;28;20766;-91
2023/12/17 09:11:52;;;;;;;24.83;13.20;;;9.70;99.90;;;;;;5012038;28;20419;-90
2023/12/17 09:14:18;;;;;;;27.75;13.07;;;9.50;99.90;;;;;;5012463;28;20411;-90
2023/12/17 09:16:44;;;;;;;27.27;13.57;;;9.50;99.90;;;;;;5014922;28;20459;-90
2023/12/17 09:19:09;;;;;;;26.02;11.38;;;9.50;99.90;;;;;;5014687;28;20439;-89
2023/12/17 09:21:35;;;;;;;22.30;11.43;;;9.90;99.90;;;;;;5015121;28;20413;-89
2023/12/17 09:24:00;;;;;;;24.52;11.88;;;9.50;99.90;;;;;;5031252;28;20999;-90
2023/12/17 09:26:26;;;;;;;24.43;12.30;;;9.60;99.90;;;;;;5015399;28;20402;-90
2023/12/17 09:28:52;;;;;;;28.77;12.80;;;9.60;99.90;;;;;;5015075;28;20428;-88
2023/12/17 09:31:17;;;;;;;25.40;12.77;;;9.60;99.90;;;;;;5030716;28;20927;-89
2023/12/17 09:33:43;;;;;;;29.30;12.70;;;9.70;99.90;;;;;;5015212;28;20452;-89
2023/12/17 09:36:09;;;;;;;22.88;10.68;;;9.80;99.90;;;;;;5030853;28;20414;-88
2023/12/17 09:38:35;;;;;;;27.42;11.98;;;9.70;99.90;;;;;;5015145;28;20428;-90
2023/12/17 09:41:03;;;;;;;23.35;11.35;;;9.50;99.90;;;;;;5014900;28;20448;-91
2023/12/17 09:43:29;;;;;;;25.75;11.88;;;9.70;99.90;;;;;;5015702;28;20412;-91
2023/12/17 09:45:55;;;;;;;23.17;11.85;;;9.70;99.90;;;;;;5015052;28;20749;-89
2023/12/17 09:48:20;;;;;;;24.38;11.02;;;10.00;99.90;;;;;;5015042;28;20451;-91
2023/12/17 09:50:46;;;;;;;26.48;11.40;;;9.60;99.90;;;;;;5031337;28;20774;-90
2023/12/17 09:53:12;;;;;;;23.33;11.43;;;9.90;99.90;;;;;;5013826;28;20405;-89
2023/12/17 09:55:38;;;;;;;24.73;11.20;;;9.80;99.90;;;;;;5014766;28;20432;-90
2023/12/17 09:58:06;;;;;;;28.33;13.13;;;10.00;99.90;;;;;;5028292;28;20400;-89
2023/12/17 10:00:33;;;;;;;23.73;11.05;;;9.80;99.90;;;;;;5041620;28;20394;-90
2023/12/17 10:03:05;;;;;;;22.70;11.55;;;9.80;99.90;;;;;;5013622;28;20486;-87
2023/12/17 10:05:31;;;;;;;23.20;11.10;;;9.80;99.90;;;;;;5030792;28;20413;-89
2023/12/17 10:07:59;;;;;;;24.88;12.23;;;10.00;99.90;;;;;;5014075;28;20424;-90
2023/12/17 10:10:25;;;;;;;26.33;12.63;;;9.80;99.90;;;;;;5013847;28;20404;-92
2023/12/17 10:12:51;;;;;;;21.23;11.93;;;10.00;99.90;;;;;;5014436;28;20486;-91
2023/12/17 10:15:18;;;;;;;23.17;13.20;;;10.10;99.90;;;;;;5013325;28;20413;-88
2023/12/17 10:17:44;;;;;;;27.63;15.43;;;9.80;99.90;;;;;;5030455;28;21086;-88
2023/12/17 10:20:10;;;;;;;27.55;15.18;;;9.80;99.90;;;;;;5013854;28;20409;-89
2023/12/17 10:22:35;;;;;;;26.13;15.35;;;9.80;99.90;;;;;;5030481;28;20413;-91
2023/12/17 10:25:01;;;;;;;28.80;16.87;;;9.80;99.90;;;;;;5014084;28;20924;-92
2023/12/17 10:27:27;;;;;;;28.10;17.97;;;10.00;99.90;;;;;;5013290;28;20409;-90
2023/12/17 10:29:53;;;;;;;28.92;18.60;;;10.20;99.90;;;;;;5013607;28;20440;-90
2023/12/17 10:32:28;;;;;;;32.05;19.00;;;9.80;99.90;;;;;;5013339;28;20409;-89
2023/12/17 10:34:54;;;;;;;32.83;20.75;;;9.80;99.90;;;;;;5047446;28;20402;-91
2023/12/17 10:37:21;;;;;;;31.30;20.30;;;10.00;99.90;;;;;;5013374;28;20441;-91
2023/12/17 10:39:54;;;;;;;30.10;20.45;;;9.80;99.90;;;;;;5047264;28;20970;-92
2023/12/17 10:42:20;;;;;;;30.10;20.20;;;10.00;99.90;;;;;;5047127;28;20441;-90
2023/12/17 10:44:49;;;;;;;29.73;19.37;;;9.80;99.90;;;;;;5014043;28;20436;-89
2023/12/17 10:47:19;;;;;;;28.85;19.77;;;9.80;99.90;;;;;;5047421;28;20449;-93
2023/12/17 10:49:46;;;;;;;31.70;21.98;;;9.90;99.90;;;;;;5046100;28;20502;-91
2023/12/17 10:52:12;;;;;;;29.77;20.10;;;9.80;99.90;;;;;;5047317;28;20397;-90
2023/12/17 10:54:39;;;;;;;32.28;20.38;;;9.80;99.90;;;;;;5046595;28;20530;-92
2023/12/17 10:57:10;;;;;;;28.80;19.67;;;10.00;99.90;;;;;;5047357;28;20429;-92
2023/12/17 10:59:38;;;;;;;32.22;19.45;;;9.80;99.90;;;;;;5030128;28;20401;-92
2023/12/17 11:02:05;;;;;;;28.35;19.23;;;10.20;99.90;;;;;;5013783;28;20552;-91
2023/12/17 11:04:31;;;;;;;27.08;18.67;;;9.90;99.90;;;;;;5013125;28;20418;-91
2023/12/17 11:06:57;;;;;;;26.90;18.33;;;9.70;99.90;;;;;;5012903;28;20784;-94
2023/12/17 11:09:24;;;;;;;27.77;19.48;;;9.70;99.90;;;;;;5047556;28;20406;-93
2023/12/17 11:11:51;;;;;;;28.80;18.08;;;9.80;99.90;;;;;;5045928;28;20409;-90
2023/12/17 11:14:17;;;;;;;29.00;18.93;;;9.80;99.90;;;;;;5047493;28;20436;-88
2023/12/17 11:16:44;;;;;;;26.38;16.98;;;9.80;99.90;;;;;;5046084;28;20512;-90
2023/12/17 11:19:12;;;;;;;29.15;18.08;;;9.80;99.90;;;;;;5013643;28;20398;-91
2023/12/17 11:21:41;;;;;;;23.00;15.85;;;10.20;99.90;;;;;;5046184;28;20406;-88
2023/12/17 11:24:07;;;;;;;23.52;15.15;;;9.90;99.90;;;;;;5046613;28;20408;-91
2023/12/17 11:26:40;;;;;;;27.98;16.55;;;10.60;99.90;;;;;;5010868;28;20410;-92
2023/12/17 11:29:32;;;;;;;26.83;17.05;;;9.80;99.90;;;;;;5012172;28;20405;-91
2023/12/17 11:32:19;;;;;;;24.58;18.25;;;9.70;99.90;;;;;;5025463;28;20773;-90
2023/12/17 11:34:48;;;;;;;25.02;20.13;;;10.10;99.90;;;;;;5062793;28;20405;-93
2023/12/17 11:37:21;;;;;;;27.80;21.00;;;10.00;99.90;;;;;;5046164;28;20457;-93
2023/12/17 11:39:51;;;;;;;31.50;19.88;;;9.90;99.90;;;;;;5017515;28;20397;-94
2023/12/17 11:42:18;;;;;;;27.33;19.20;;;10.00;99.90;;;;;;5043872;28;20413;-93
2023/12/17 11:44:49;;;;;;;27.92;19.67;;;10.10;99.90;;;;;;5062965;28;20489;-94
2023/12/17 11:47:25;;;;;;;25.80;17.98;;;10.10;99.90;;;;;;5027015;28;20441;-92
2023/12/17 11:49:59;;;;;;;29.02;19.05;;;9.90;99.90;;;;;;5041696;28;20413;-90
2023/12/17 11:52:25;;;;;;;24.33;18.52;;;10.20;99.90;;;;;;5046681;28;20413;-92
2023/12/17 11:54:58;;;;;;;25.50;18.85;;;10.10;99.90;;;;;;5012172;28;20406;-92
2023/12/17 11:57:25;;;;;;;24.50;18.70;;;10.00;99.90;;;;;;5045950;28;20780;-90
2023/12/17 11:59:51;;;;;;;27.55;18.65;;;10.00;99.90;;;;;;5045554;28;20400;-92
2023/12/17 12:02:18;;;;;;;23.20;16.90;;;9.90;99.90;;;;;;5030822;28;20409;-91
2023/12/17 12:04:45;;;;;;;23.27;18.23;;;10.10;99.90;;;;;;5044773;28;20405;-91
2023/12/17 12:07:17;;;;;;;25.77;18.70;;;9.90;99.90;;;;;;5046318;28;20405;-92
2023/12/17 12:09:43;;;;;;;27.70;19.98;;;10.20;99.90;;;;;;5013571;28;20443;-89
2023/12/17 12:12:21;;;;;;;25.70;18.83;;;9.70;99.90;;;;;;5012342;28;20449;-93
2023/12/17 12:14:48;;;;;;;27.77;20.00;;;9.80;99.90;;;;;;5046530;28;20974;-90
2023/12/17 12:17:46;;;;;;;25.92;19.63;;;10.00;99.90;;;;;;5045626;28;21334;-91
2023/12/17 12:20:13;;;;;;;26.17;19.38;;;9.80;99.90;;;;;;4991997;28;20415;-89
2023/12/17 12:22:45;;;;;;;29.60;20.23;;;10.00;99.90;;;;;;5013680;28;21000;-90
2023/12/17 12:25:12;;;;;;;28.25;21.98;;;9.90;99.90;;;;;;5063101;28;20418;-92
2023/12/17 12:27:38;;;;;;;29.48;21.48;;;9.80;99.90;;;;;;5030553;28;20399;-92
2023/12/17 12:30:05;;;;;;;29.65;21.33;;;9.80;99.90;;;;;;5012328;28;20422;-93
2023/12/17 12:32:32;;;;;;;28.73;22.08;;;9.80;99.90;;;;;;5014695;28;21040;-93
2023/12/17 12:34:59;;;;;;;29.58;22.33;;;9.40;99.90;;;;;;5045728;28;20411;-89